createdAt,value
2022-08-01T00:00:32.401Z,101830.63
2022-08-01T00:03:02.771Z,101831.53
2022-08-01T00:05:35.996Z,101827.97
2022-08-01T00:08:06.388Z,101827.09
2022-08-01T00:10:36.608Z,101835.94
2022-08-01T00:13:08.170Z,101834.16
2022-08-01T00:15:40.909Z,101828.88
2022-08-01T00:18:24.992Z,101835.94
2022-08-01T00:21:01.283Z,101835.94
2022-08-01T00:23:31.190Z,101835.06
2022-08-01T00:26:01.607Z,101832.41
2022-08-01T00:28:34.640Z,101838.59
2022-08-01T00:31:05.231Z,101839.50
2022-08-01T00:33:35.238Z,101837.72
2022-08-01T00:36:08.408Z,101840.38
2022-08-01T00:38:38.381Z,101835.06
2022-08-01T00:41:08.485Z,101835.94
2022-08-01T00:43:38.649Z,101843.91
2022-08-01T00:46:08.722Z,101836.84
2022-08-01T00:48:38.956Z,101838.59
2022-08-01T00:51:15.011Z,101833.28
2022-08-01T00:53:51.887Z,101830.66
2022-08-01T00:56:24.383Z,101828.00
2022-08-01T00:59:00.276Z,101835.06
2022-08-01T01:01:39.844Z,101835.09
2022-08-01T01:04:12.938Z,101829.78
2022-08-01T01:07:01.801Z,101830.66
2022-08-01T01:09:42.513Z,101829.78
2022-08-01T01:12:26.390Z,101822.72
2022-08-01T01:15:05.547Z,101829.78
2022-08-01T01:17:50.105Z,101826.25
2022-08-01T01:20:22.326Z,101828.03
2022-08-01T01:23:10.976Z,101831.56
2022-08-01T01:26:13.941Z,101828.91
2022-08-01T01:29:01.816Z,101827.13
2022-08-01T01:31:34.995Z,101828.94
2022-08-01T01:34:07.141Z,101828.03
2022-08-01T01:36:39.515Z,101834.25
2022-08-01T01:39:11.040Z,101838.63
2022-08-01T01:41:44.152Z,101835.09
2022-08-01T01:44:18.958Z,101835.97
2022-08-01T01:46:50.283Z,101837.75
2022-08-01T01:49:26.474Z,101835.09
2022-08-01T01:52:02.476Z,101835.97
2022-08-01T01:54:36.880Z,101842.16
2022-08-01T01:57:09.183Z,101833.31
2022-08-01T01:59:43.593Z,101841.28
2022-08-01T02:02:18.034Z,101831.56
2022-08-01T02:04:53.683Z,101834.22
2022-08-01T02:07:29.317Z,101839.50
2022-08-01T02:10:00.997Z,101842.16
2022-08-01T02:12:34.136Z,101836.84
2022-08-01T02:15:10.719Z,101843.91
2022-08-01T02:17:45.460Z,101839.50
2022-08-01T02:20:18.000Z,101842.16
2022-08-01T02:22:52.635Z,101846.56
2022-08-01T02:25:28.401Z,101843.91
2022-08-01T02:28:05.207Z,101844.81
2022-08-01T02:30:40.213Z,101848.34
2022-08-01T02:33:17.318Z,101843.03
2022-08-01T02:36:29.030Z,101846.56
2022-08-01T02:38:47.588Z,101850.09
2022-08-01T02:41:24.077Z,101848.34
2022-08-01T02:44:00.787Z,101854.53
2022-08-01T02:46:40.455Z,101845.69
2022-08-01T02:49:14.155Z,101841.28
2022-08-01T02:51:45.705Z,101847.47
2022-08-01T02:54:16.083Z,101843.91
2022-08-01T02:56:47.612Z,101849.22
2022-08-01T02:59:22.338Z,101847.44
2022-08-01T03:02:00.736Z,101852.75
2022-08-01T03:04:34.564Z,101850.09
2022-08-01T03:07:07.498Z,101850.97
2022-08-01T03:09:42.661Z,101851.88
2022-08-01T03:12:17.707Z,101857.16
2022-08-01T03:14:52.831Z,101847.44
2022-08-01T03:17:29.083Z,101859.81
2022-08-01T03:20:02.186Z,101856.28
2022-08-01T03:22:33.793Z,101855.41
2022-08-01T03:25:07.343Z,101858.06
2022-08-01T03:27:37.271Z,101856.28
2022-08-01T03:30:11.682Z,101855.41
2022-08-01T03:32:56.592Z,101853.63
2022-08-01T03:35:31.071Z,101865.13
2022-08-01T03:38:16.421Z,101858.03
2022-08-01T03:40:52.753Z,101859.81
2022-08-01T03:43:31.380Z,101865.13
2022-08-01T03:46:08.946Z,101867.75
2022-08-01T03:48:46.683Z,101861.59
2022-08-01T03:51:22.832Z,101859.81
2022-08-01T03:53:56.759Z,101857.16
2022-08-01T03:56:30.004Z,101857.16
2022-08-01T03:59:00.991Z,101856.28
2022-08-01T04:01:32.085Z,101850.09
2022-08-01T04:04:07.085Z,101858.94
2022-08-01T04:06:37.130Z,101857.16
2022-08-01T04:09:12.818Z,101852.75
2022-08-01T04:11:43.847Z,101856.28
2022-08-01T04:14:14.900Z,101858.94
2022-08-01T04:16:44.943Z,101858.91
2022-08-01T04:19:18.675Z,101865.09
2022-08-01T04:21:48.788Z,101860.69
2022-08-01T04:24:25.588Z,101868.63
2022-08-01T04:26:59.866Z,101863.31
2022-08-01T04:29:31.778Z,101869.53
2022-08-01T04:32:05.526Z,101869.53
2022-08-01T04:34:38.981Z,101869.53
2022-08-01T04:37:13.910Z,101873.06
2022-08-01T04:39:50.819Z,101873.94
2022-08-01T04:42:25.068Z,101876.59
2022-08-01T04:44:58.841Z,101879.28
2022-08-01T04:47:30.937Z,101874.84
2022-08-01T04:50:04.806Z,101876.63
2022-08-01T04:52:37.739Z,101870.44
2022-08-01T04:55:10.455Z,101875.75
2022-08-01T04:57:41.678Z,101874.88
2022-08-01T05:00:13.088Z,101874.88
2022-08-01T05:02:43.966Z,101888.16
2022-08-01T05:05:16.663Z,101890.81
2022-08-01T05:07:47.124Z,101881.97
2022-08-01T05:10:18.510Z,101883.78
2022-08-01T05:12:48.310Z,101878.44
2022-08-01T05:15:18.423Z,101876.66
2022-08-01T05:17:48.616Z,101874.91
2022-08-01T05:20:25.086Z,101877.56
2022-08-01T05:22:56.942Z,101874.91
2022-08-01T05:25:57.689Z,101882.84
2022-08-01T05:28:19.442Z,101878.44
2022-08-01T05:30:49.675Z,101874.91
2022-08-01T05:33:21.946Z,101876.66
2022-08-01T05:35:55.109Z,101881.97
2022-08-01T05:38:25.349Z,101876.66
2022-08-01T05:40:56.572Z,101883.75
2022-08-01T05:43:28.949Z,101885.50
2022-08-01T05:45:59.882Z,101889.06
2022-08-01T05:48:31.457Z,101891.69
2022-08-01T05:51:04.667Z,101894.34
2022-08-01T05:53:35.484Z,101895.25
2022-08-01T05:56:05.934Z,101894.34
2022-08-01T05:58:36.100Z,101897.00
2022-08-01T06:01:07.161Z,101893.50
2022-08-01T06:03:44.044Z,101899.66
2022-08-01T06:06:17.845Z,101907.63
2022-08-01T06:08:54.879Z,101905.81
2022-08-01T06:11:30.378Z,101912.03
2022-08-01T06:14:06.552Z,101916.44
2022-08-01T06:16:36.876Z,101915.56
2022-08-01T06:19:07.476Z,101917.34
2022-08-01T06:21:40.574Z,101913.81
2022-08-01T06:24:12.352Z,101912.94
2022-08-01T06:26:44.006Z,101919.13
2022-08-01T06:29:14.754Z,101927.97
2022-08-01T06:31:44.897Z,101920.91
2022-08-01T06:34:16.433Z,101927.97
2022-08-01T06:36:49.450Z,101931.50
2022-08-01T06:39:19.934Z,101936.81
2022-08-01T06:41:52.242Z,101946.56
2022-08-01T06:44:27.785Z,101945.66
2022-08-01T06:47:01.648Z,101946.56
2022-08-01T06:49:31.900Z,101935.94
2022-08-01T06:52:08.718Z,101944.78
2022-08-01T06:54:39.004Z,101947.44
2022-08-01T06:57:10.521Z,101950.97
2022-08-01T06:59:40.867Z,101949.19
2022-08-01T07:02:31.208Z,101953.63
2022-08-01T07:05:03.852Z,101955.38
2022-08-01T07:07:36.860Z,101963.34
2022-08-01T07:10:07.876Z,101966.00
2022-08-01T07:12:39.216Z,101961.53
2022-08-01T07:15:32.799Z,101960.66
2022-08-01T07:18:06.074Z,101965.06
2022-08-01T07:20:52.737Z,101965.97
2022-08-01T07:23:30.385Z,101958.00
2022-08-01T07:26:04.535Z,101972.19
2022-08-01T07:28:35.351Z,101973.06
2022-08-01T07:31:14.143Z,101978.38
2022-08-01T07:33:48.373Z,101977.47
2022-08-01T07:36:36.405Z,101981.91
2022-08-01T07:39:09.700Z,101982.78
2022-08-01T07:42:05.575Z,101995.19
2022-08-01T07:44:35.842Z,101991.66
2022-08-01T07:47:06.025Z,102004.06
2022-08-01T07:49:40.428Z,102002.28
2022-08-01T07:52:14.202Z,102001.41
2022-08-01T07:55:02.514Z,101997.00
2022-08-01T07:57:35.771Z,101998.78
2022-08-01T08:00:06.811Z,101990.81
2022-08-01T08:02:36.940Z,102001.44
2022-08-01T08:05:08.512Z,101994.25
2022-08-01T08:07:38.621Z,101995.06
2022-08-01T08:10:13.717Z,101993.28
2022-08-01T08:12:43.873Z,101990.63
2022-08-01T08:15:16.039Z,101998.59
2022-08-01T08:17:50.299Z,101999.47
2022-08-01T08:20:30.643Z,102010.03
2022-08-01T08:23:41.411Z,102007.34
2022-08-01T08:26:16.310Z,102017.97
2022-08-01T08:28:51.340Z,102010.84
2022-08-01T08:31:25.658Z,102016.16
2022-08-01T08:34:11.770Z,102017.00
2022-08-01T08:36:47.680Z,102013.31
2022-08-01T08:39:20.744Z,102014.16
2022-08-01T08:41:55.774Z,102011.31
2022-08-01T08:44:26.971Z,102003.19
2022-08-01T08:46:59.582Z,102014.53
2022-08-01T08:49:36.058Z,102015.88
2022-08-01T08:52:09.259Z,102019.84
2022-08-01T08:54:41.096Z,102023.25
2022-08-01T08:57:17.498Z,102027.66
2022-08-01T08:59:47.696Z,102025.34
2022-08-01T09:02:18.255Z,102020.63
2022-08-01T09:04:51.187Z,102037.25
2022-08-01T09:07:21.639Z,102034.47
2022-08-01T09:09:54.966Z,102036.38
2022-08-01T09:12:28.824Z,102038.25
2022-08-01T09:14:59.084Z,102042.94
2022-08-01T09:17:29.317Z,102047.59
2022-08-01T09:20:01.075Z,102046.78
2022-08-01T09:22:38.521Z,102048.25
2022-08-01T09:25:10.821Z,102047.69
2022-08-01T09:27:44.215Z,102044.16
2022-08-01T09:30:23.971Z,102047.94
2022-08-01T09:33:06.380Z,102045.91
2022-08-01T09:35:45.811Z,102052.75
2022-08-01T09:38:21.443Z,102051.53
2022-08-01T09:40:58.972Z,102050.34
2022-08-01T09:43:33.276Z,102057.75
2022-08-01T09:46:13.538Z,102059.16
2022-08-01T09:49:00.009Z,102064.25
2022-08-01T09:51:58.884Z,102066.03
2022-08-01T09:54:36.620Z,102065.72
2022-08-01T09:57:17.812Z,102050.75
2022-08-01T10:00:01.287Z,102057.09
2022-08-01T10:02:34.924Z,102063.31
2022-08-01T10:05:08.781Z,102063.47
2022-08-01T10:07:43.256Z,102067.97
2022-08-01T10:10:16.549Z,102052.47
2022-08-01T10:12:49.185Z,102065.19
2022-08-01T10:15:37.026Z,102054.47
2022-08-01T10:18:16.355Z,102047.56
2022-08-01T10:20:52.815Z,102054.47
2022-08-01T10:23:40.554Z,102050.78
2022-08-01T10:26:14.941Z,102060.00
2022-08-01T10:28:51.893Z,102057.63
2022-08-01T10:31:30.826Z,102058.22
2022-08-01T10:34:05.236Z,102057.28
2022-08-01T10:36:40.860Z,102055.63
2022-08-01T10:39:14.087Z,102056.06
2022-08-01T10:41:50.389Z,102064.50
2022-08-01T10:44:21.745Z,102063.19
2022-08-01T10:47:01.942Z,102059.81
2022-08-01T10:49:36.461Z,102058.97
2022-08-01T10:52:06.924Z,102065.03
2022-08-01T10:54:52.499Z,102062.69
2022-08-01T10:57:27.501Z,102067.22
2022-08-01T10:59:59.429Z,102066.19
2022-08-01T11:02:35.861Z,102065.16
2022-08-01T11:05:11.216Z,102067.38
2022-08-01T11:07:52.257Z,102071.19
2022-08-01T11:10:39.863Z,102072.44
2022-08-01T11:13:13.491Z,102073.78
2022-08-01T11:15:50.344Z,102071.91
2022-08-01T11:18:41.637Z,102073.34
2022-08-01T11:21:58.849Z,102074.81
2022-08-01T11:24:05.214Z,102069.59
2022-08-01T11:26:38.911Z,102069.88
2022-08-01T11:29:22.284Z,102075.00
2022-08-01T11:31:53.589Z,102073.38
2022-08-01T11:34:59.953Z,102072.00
2022-08-01T11:37:52.629Z,102071.56
2022-08-01T11:43:43.885Z,102060.25
2022-08-01T11:46:28.814Z,102067.88
2022-08-01T11:49:40.200Z,102067.53
2022-08-01T11:52:23.733Z,102061.84
2022-08-01T11:55:16.620Z,102069.88
2022-08-01T12:00:47.131Z,102069.59
2022-08-01T12:07:20.948Z,102072.44
2022-08-01T12:10:10.848Z,102077.56
2022-08-01T12:13:14.942Z,102071.69
2022-08-01T12:15:47.387Z,102079.16
2022-08-01T12:18:19.491Z,102077.75
2022-08-01T12:20:58.204Z,102070.25
2022-08-01T12:24:00.595Z,102073.44
2022-08-01T12:26:44.781Z,102071.06
2022-08-01T12:29:37.185Z,102081.28
2022-08-01T12:32:08.008Z,102075.38
2022-08-01T12:34:39.205Z,102068.91
2022-08-01T12:37:09.622Z,102069.44
2022-08-01T12:39:43.342Z,102077.84
2022-08-01T12:42:14.077Z,102078.72
2022-08-01T12:44:45.998Z,102069.78
2022-08-01T12:47:17.417Z,102072.25
2022-08-01T12:49:50.520Z,102071.63
2022-08-01T12:52:28.481Z,102076.25
2022-08-01T12:55:16.157Z,102080.44
2022-08-01T12:57:51.023Z,102078.69
2022-08-01T13:00:25.613Z,102081.25
2022-08-01T13:03:07.907Z,102078.03
2022-08-01T13:05:49.411Z,102084.88
2022-08-01T13:08:22.517Z,102073.00
2022-08-01T13:11:03.973Z,102064.47
2022-08-01T13:13:43.414Z,102075.03
2022-08-01T13:16:30.243Z,102072.31
2022-08-01T13:19:05.961Z,102065.84
2022-08-01T13:21:54.502Z,102064.34
2022-08-01T13:24:31.207Z,102066.09
2022-08-01T13:27:06.036Z,102073.81
2022-08-01T13:29:40.145Z,102059.38
2022-08-01T13:32:29.123Z,102060.47
2022-08-01T13:35:16.008Z,102064.19
2022-08-01T13:38:11.723Z,102050.38
2022-08-01T13:40:46.982Z,102058.44
2022-08-01T13:43:19.840Z,102047.75
2022-08-01T13:45:51.324Z,102054.22
2022-08-01T13:48:28.495Z,102057.38
2022-08-01T13:53:52.300Z,102037.25
2022-08-01T13:56:31.715Z,102047.97
2022-08-01T13:59:06.706Z,102050.06
2022-08-01T14:01:55.253Z,102048.41
2022-08-01T14:05:16.394Z,102031.41
2022-08-01T14:14:42.618Z,102040.00
2022-08-01T14:17:14.622Z,102032.59
2022-08-01T14:19:46.423Z,102030.78
2022-08-01T14:22:16.574Z,102024.69
2022-08-01T14:24:46.721Z,102032.94
2022-08-01T14:27:17.704Z,102027.63
2022-08-01T14:30:00.258Z,102032.03
2022-08-01T14:32:34.639Z,102023.34
2022-08-01T14:35:05.101Z,102027.38
2022-08-01T14:37:38.715Z,102014.47
2022-08-01T14:40:17.121Z,102023.00
2022-08-01T14:42:53.933Z,102028.03
2022-08-01T14:45:28.924Z,102020.66
2022-08-01T14:48:00.783Z,102024.50
2022-08-01T14:50:32.009Z,102030.44
2022-08-01T14:53:01.922Z,102034.63
2022-08-01T14:55:31.904Z,102037.78
2022-08-01T14:58:03.386Z,102044.75
2022-08-01T15:00:36.371Z,102043.66
2022-08-01T15:03:06.004Z,102054.09
2022-08-01T15:05:37.537Z,102054.53
2022-08-01T15:08:09.574Z,102052.25
2022-08-01T15:10:39.811Z,102047.47
2022-08-01T15:13:10.676Z,102055.25
2022-08-01T15:15:43.276Z,102047.97
2022-08-01T15:18:13.203Z,102054.44
2022-08-01T15:20:43.297Z,102051.28
2022-08-01T15:23:13.579Z,102051.22
2022-08-01T15:25:43.853Z,102053.81
2022-08-01T15:28:14.681Z,102045.22
2022-08-01T15:30:47.310Z,102050.72
2022-08-01T15:33:17.903Z,102051.28
2022-08-01T15:35:48.006Z,102037.13
2022-08-01T15:38:22.958Z,102038.47
2022-08-01T15:40:55.888Z,102033.44
2022-08-01T15:43:27.176Z,102034.09
2022-08-01T15:46:04.339Z,102035.59
2022-08-01T15:48:39.681Z,102035.13
2022-08-01T15:51:10.602Z,102028.63
2022-08-01T15:53:41.514Z,102024.38
2022-08-01T15:56:14.583Z,102029.22
2022-08-01T15:58:45.258Z,102024.44
2022-08-01T16:01:18.595Z,102031.66
2022-08-01T16:03:48.868Z,102024.59
2022-08-01T16:06:18.835Z,102027.47
2022-08-01T16:08:51.082Z,102024.94
2022-08-01T16:11:24.202Z,102030.16
2022-08-01T16:14:00.388Z,102023.38
2022-08-01T16:16:32.655Z,102026.47
2022-08-01T16:19:05.769Z,102027.00
2022-08-01T16:21:35.391Z,102025.25
2022-08-01T16:24:05.383Z,102018.91
2022-08-01T16:26:38.858Z,102021.81
2022-08-01T16:29:09.013Z,102018.69
2022-08-01T16:31:51.734Z,102022.69
2022-08-01T16:34:31.671Z,102018.03
2022-08-01T16:37:03.129Z,102027.41
2022-08-01T16:39:36.698Z,102014.34
2022-08-01T16:42:07.820Z,102021.59
2022-08-01T16:44:38.161Z,102022.31
2022-08-01T16:47:11.690Z,102015.31
2022-08-01T16:49:46.168Z,102021.13
2022-08-01T16:52:16.622Z,102022.47
2022-08-01T16:54:47.399Z,102023.97
2022-08-01T16:57:17.374Z,102028.78
2022-08-01T16:59:49.288Z,102018.22
2022-08-01T17:02:22.910Z,102020.34
2022-08-01T17:04:52.958Z,102013.19
2022-08-01T17:07:25.182Z,102017.50
2022-08-01T17:09:58.797Z,102014.28
2022-08-01T17:12:29.520Z,102012.53
2022-08-01T17:14:59.347Z,102018.31
2022-08-01T17:17:32.404Z,102023.22
2022-08-01T17:20:02.424Z,102024.50
2022-08-01T17:22:32.216Z,102018.09
2022-08-01T17:25:02.649Z,102014.13
2022-08-01T17:27:34.413Z,102008.16
2022-08-01T17:30:07.248Z,102014.91
2022-08-01T17:32:42.139Z,102022.91
2022-08-01T17:35:15.654Z,102019.41
2022-08-01T17:37:45.571Z,102030.31
2022-08-01T17:40:39.221Z,102019.94
2022-08-01T17:43:07.895Z,102022.84
2022-08-01T17:45:51.344Z,102027.34
2022-08-01T17:48:24.890Z,102022.66
2022-08-01T17:50:55.385Z,102023.81
2022-08-01T17:53:26.827Z,102025.81
2022-08-01T17:56:01.798Z,102028.59
2022-08-01T17:58:51.100Z,102022.53
2022-08-01T18:01:26.979Z,102030.16
2022-08-01T18:04:01.925Z,102025.84
2022-08-01T18:06:32.287Z,102026.53
2022-08-01T18:09:09.453Z,102026.03
2022-08-01T18:11:41.724Z,102023.38
2022-08-01T18:14:14.410Z,102026.94
2022-08-01T18:16:44.294Z,102014.78
2022-08-01T18:19:21.298Z,102021.16
2022-08-01T18:21:51.489Z,102019.75
2022-08-01T18:24:23.421Z,102023.41
2022-08-01T18:26:55.060Z,102017.25
2022-08-01T18:29:47.758Z,102025.38
2022-08-01T18:32:16.791Z,102025.59
2022-08-01T18:34:49.573Z,102018.53
2022-08-01T18:37:19.963Z,102030.22
2022-08-01T18:39:51.756Z,102026.94
2022-08-01T18:42:30.692Z,102027.88
2022-08-01T18:45:06.647Z,102021.69
2022-08-01T18:47:39.327Z,102029.75
2022-08-01T18:50:13.210Z,102030.09
2022-08-01T18:52:48.650Z,102035.44
2022-08-01T18:55:19.206Z,102032.78
2022-08-01T18:57:51.778Z,102037.47
2022-08-01T19:00:36.965Z,102048.34
2022-08-01T19:03:12.810Z,102047.63
2022-08-01T19:05:46.619Z,102051.25
2022-08-01T19:08:16.598Z,102043.34
2022-08-01T19:10:46.826Z,102050.59
2022-08-01T19:13:19.107Z,102047.09
2022-08-01T19:15:50.786Z,102051.66
2022-08-01T19:18:22.072Z,102047.34
2022-08-01T19:20:55.411Z,102050.06
2022-08-01T19:23:38.962Z,102051.91
2022-08-01T19:26:12.852Z,102052.91
2022-08-01T19:28:49.611Z,102054.75
2022-08-01T19:31:22.438Z,102045.06
2022-08-01T19:33:56.856Z,102050.41
2022-08-01T19:36:30.136Z,102062.88
2022-08-01T19:39:01.469Z,102060.25
2022-08-01T19:41:35.124Z,102056.75
2022-08-01T19:44:07.343Z,102060.34
2022-08-01T19:46:37.555Z,102055.09
2022-08-01T19:49:07.870Z,102054.25
2022-08-01T19:51:44.783Z,102058.75
2022-08-01T19:54:16.541Z,102063.19
2022-08-01T19:56:48.249Z,102068.56
2022-08-01T19:59:22.422Z,102063.25
2022-08-01T20:01:59.195Z,102066.81
2022-08-01T20:04:29.764Z,102062.41
2022-08-01T20:07:03.169Z,102063.31
2022-08-01T20:09:34.451Z,102064.22
2022-08-01T20:12:04.622Z,102069.56
2022-08-01T20:14:34.850Z,102065.16
2022-08-01T20:17:05.166Z,102074.91
2022-08-01T20:19:38.846Z,102069.59
2022-08-01T20:22:15.925Z,102066.06
2022-08-01T20:24:51.051Z,102073.16
2022-08-01T20:27:28.096Z,102070.53
2022-08-01T20:30:04.868Z,102075.81
2022-08-01T20:32:36.681Z,102072.25
2022-08-01T20:35:07.969Z,102071.38
2022-08-01T20:38:06.263Z,102070.50
2022-08-01T20:40:33.289Z,102068.72
2022-08-01T20:43:03.703Z,102076.66
2022-08-01T20:45:34.126Z,102060.72
2022-08-01T20:48:06.638Z,102063.38
2022-08-01T20:50:54.074Z,102073.09
2022-08-01T20:53:29.077Z,102063.34
2022-08-01T20:56:09.338Z,102066.88
2022-08-01T20:58:58.318Z,102078.38
2022-08-01T21:01:34.451Z,102071.25
2022-08-01T21:04:17.072Z,102071.25
2022-08-01T21:06:58.546Z,102068.59
2022-08-01T21:09:39.672Z,102061.50
2022-08-01T21:12:15.665Z,102066.81
2022-08-01T21:15:02.126Z,102060.56
2022-08-01T21:17:44.135Z,102063.22
2022-08-01T21:20:16.269Z,102057.00
2022-08-01T21:23:01.448Z,102053.47
2022-08-01T21:25:37.548Z,102060.53
2022-08-01T21:28:08.756Z,102060.50
2022-08-01T21:30:39.589Z,102057.84
2022-08-01T21:33:14.853Z,102062.25
2022-08-01T21:35:45.338Z,102050.75
2022-08-01T21:38:19.348Z,102056.03
2022-08-01T21:40:52.780Z,102061.31
2022-08-01T21:43:25.945Z,102062.22
2022-08-01T21:46:00.678Z,102058.66
2022-08-01T21:48:37.333Z,102056.88
2022-08-01T21:51:12.474Z,102053.34
2022-08-01T21:53:50.886Z,102053.34
2022-08-01T21:56:30.614Z,102060.41
2022-08-01T21:59:14.944Z,102051.53
2022-08-01T22:01:55.803Z,102049.75
2022-08-01T22:04:36.675Z,102058.56
2022-08-01T22:07:09.862Z,102063.88
2022-08-01T22:09:42.210Z,102053.25
2022-08-01T22:12:18.639Z,102047.06
2022-08-01T22:14:52.478Z,102045.25
2022-08-01T22:17:25.437Z,102039.06
2022-08-01T22:19:57.020Z,102034.66
2022-08-01T22:22:51.289Z,102035.53
2022-08-01T22:25:25.421Z,102034.63
2022-08-01T22:28:05.684Z,102040.78
2022-08-01T22:30:44.347Z,102039.03
2022-08-01T22:33:17.783Z,102039.03
2022-08-01T22:35:49.693Z,102041.66
2022-08-01T22:38:22.783Z,102038.09
2022-08-01T22:40:58.119Z,102040.72
2022-08-01T22:43:38.690Z,102035.41
2022-08-01T22:46:18.418Z,102040.69
2022-08-01T22:48:53.693Z,102035.38
2022-08-01T22:51:37.390Z,102035.34
2022-08-01T22:54:09.996Z,102031.81
2022-08-01T22:56:46.885Z,102015.91
2022-08-01T22:59:43.019Z,102013.22
2022-08-01T23:02:18.291Z,102021.16
2022-08-01T23:04:52.648Z,102011.44
2022-08-01T23:07:41.641Z,102011.41
2022-08-01T23:10:13.148Z,102018.47
2022-08-01T23:12:44.870Z,102020.25
2022-08-01T23:15:30.825Z,102026.44
2022-08-01T23:18:07.911Z,102029.09
2022-08-01T23:20:39.924Z,102026.44
2022-08-01T23:23:12.136Z,102022.03
2022-08-01T23:25:44.289Z,102010.56
2022-08-01T23:28:17.278Z,102006.13
2022-08-01T23:30:51.195Z,102006.13
2022-08-01T23:33:21.430Z,102010.56
2022-08-01T23:35:52.464Z,102012.34
2022-08-01T23:38:27.608Z,102007.03
2022-08-01T23:41:01.077Z,102003.50
2022-08-01T23:43:33.100Z,101992.00
2022-08-01T23:46:06.054Z,101999.94
2022-08-01T23:48:37.063Z,101999.97
2022-08-01T23:51:09.434Z,102008.81
2022-08-01T23:53:41.463Z,102002.66
2022-08-01T23:56:20.777Z,101999.13
2022-08-01T23:58:56.830Z,101995.63
